Terminal Aerodrome Forecast
Issued by NWS

Home | Current Version | Previous Version | Text Only | Print | Product List | Glossary On
Versions: 1 2 3 4 5 6 7 8 9 10 11 12 13 14 15 16 17 18
000
FTUS43 KMQT 031729 CCA
TAFCMX
TAF COR
KCMX 031729Z 0318/0418 28012KT P6SM VCSH SCT030 BKN035
     FM040000 29008KT P6SM BKN035
     FM040300 29006KT P6SM VCSH SCT030 BKN035
     FM040900 32007KT P6SM OVC030
     FM041400 31006KT P6SM OVC035
     FM041700 32009KT P6SM BKN070=

USA.gov is the U.S. government's official web portal to all federal, state and local government web resources and services.